createdAt,value
2023-02-28T00:00:01.468Z,112.4
2023-02-28T00:05:01.583Z,114.8
2023-02-28T00:10:01.446Z,109.5
2023-02-28T00:15:01.554Z,116.9
2023-02-28T00:20:01.424Z,112.8
2023-02-28T00:25:01.535Z,99.6
2023-02-28T00:30:01.419Z,92.6
2023-02-28T00:35:01.513Z,107.4
2023-02-28T00:40:01.478Z,123.6
2023-02-28T00:45:01.570Z,122.3
2023-02-28T00:50:01.428Z,122.7
2023-02-28T00:55:02.051Z,140.8
2023-02-28T01:00:01.448Z,149.6
2023-02-28T01:05:01.506Z,144.0
2023-02-28T01:10:01.397Z,161.1
2023-02-28T01:15:01.439Z,167.7
2023-02-28T01:20:01.377Z,170.8
2023-02-28T01:25:01.468Z,178.5
2023-02-28T01:30:01.379Z,172.8
2023-02-28T01:35:01.498Z,160.9
2023-02-28T01:40:01.370Z,157.4
2023-02-28T01:45:01.529Z,143.8
2023-02-28T01:50:01.364Z,130.6
2023-02-28T01:55:01.540Z,123.9
2023-02-28T02:00:01.365Z,105.8
2023-02-28T02:05:01.527Z,79.8
2023-02-28T02:10:01.586Z,66.4
2023-02-28T02:15:01.405Z,90.2
2023-02-28T02:20:01.388Z,82.6
2023-02-28T02:35:01.160Z,266.4
2023-02-28T02:40:01.036Z,166.8
2023-02-28T02:55:01.627Z,85.0
2023-02-28T03:00:01.475Z,156.6
2023-02-28T03:05:01.610Z,175.3
2023-02-28T03:10:01.455Z,201.1
2023-02-28T03:15:01.539Z,203.1
2023-02-28T03:20:01.448Z,193.9
2023-02-28T03:25:01.575Z,168.8
2023-02-28T03:30:01.440Z,130.5
2023-02-28T03:35:01.610Z,89.8
2023-02-28T03:40:01.752Z,99.7
2023-02-28T03:45:01.498Z,135.1
2023-02-28T03:50:01.432Z,161.9
2023-02-28T04:25:01.723Z,77.4
2023-02-28T04:30:01.525Z,88.0
2023-02-28T04:35:01.578Z,91.2
2023-02-28T04:40:01.539Z,89.7
2023-02-28T04:45:01.602Z,49.0
2023-02-28T07:50:01.504Z,71.6
2023-02-28T07:55:01.466Z,135.4
2023-02-28T08:00:01.484Z,203.9
2023-02-28T08:05:01.524Z,272.8
2023-02-28T08:10:01.414Z,303.6
2023-02-28T08:15:01.518Z,255.2
2023-02-28T08:20:01.385Z,206.8
2023-02-28T08:25:01.486Z,142.4
2023-02-28T08:30:01.444Z,74.4
2023-02-28T08:35:01.475Z,62.8
2023-02-28T08:40:02.477Z,52.7
2023-02-28T08:45:06.502Z,39.0
2023-02-28T08:50:01.777Z,35.0
2023-02-28T08:55:01.425Z,33.8
2023-02-28T09:00:01.355Z,14.7
2023-02-28T11:35:01.379Z,5.6
2023-02-28T11:40:01.302Z,6.5
2023-02-28T11:45:01.410Z,6.0
2023-02-28T11:50:01.322Z,6.4
2023-02-28T12:15:01.558Z,2.4
2023-02-28T12:35:01.082Z,6.2
2023-02-28T12:40:01.301Z,27.4
2023-02-28T12:45:08.787Z,22.9
2023-02-28T12:50:00.985Z,26.1
2023-02-28T12:55:01.060Z,31.8
2023-02-28T13:15:00.877Z,75.0
2023-02-28T13:35:01.335Z,39.4
2023-02-28T13:55:00.883Z,63.4
2023-02-28T14:15:02.366Z,86.0
2023-02-28T14:55:01.269Z,67.6
2023-02-28T15:00:01.160Z,80.8
2023-02-28T15:15:00.796Z,88.6
2023-02-28T15:20:00.772Z,92.0
2023-02-28T15:25:00.775Z,123.4
2023-02-28T15:30:01.040Z,116.9
2023-02-28T15:35:00.848Z,112.3
2023-02-28T15:55:01.499Z,131.8
2023-02-28T16:00:01.391Z,133.5
2023-02-28T16:05:01.452Z,128.5
2023-02-28T16:25:01.021Z,163.6
2023-02-28T16:30:00.901Z,165.1
2023-02-28T16:35:00.967Z,171.1
2023-02-28T16:40:00.910Z,177.6
2023-02-28T16:45:01.078Z,172.8
2023-02-28T16:50:00.909Z,174.1
2023-02-28T16:55:01.040Z,172.7
2023-02-28T17:00:00.904Z,170.6
2023-02-28T17:05:00.998Z,162.8
2023-02-28T17:10:00.931Z,163.2
2023-02-28T17:15:01.033Z,158.3
2023-02-28T17:20:00.970Z,162.0
2023-02-28T17:35:01.954Z,120.8
2023-02-28T17:40:00.885Z,114.8
2023-02-28T17:45:00.889Z,135.3
2023-02-28T17:50:00.958Z,157.4
2023-02-28T17:55:00.983Z,171.8
2023-02-28T18:00:02.243Z,200.0
2023-02-28T18:05:00.883Z,238.8
2023-02-28T18:10:05.926Z,253.0
2023-02-28T18:15:00.898Z,292.0
2023-02-28T18:20:00.835Z,318.4
2023-02-28T18:25:00.963Z,343.5
2023-02-28T18:30:00.848Z,338.7
2023-02-28T18:35:01.357Z,339.3
2023-02-28T18:40:00.815Z,306.2
2023-02-28T18:45:00.883Z,294.3
2023-02-28T18:50:01.881Z,256.5
2023-02-28T18:55:00.956Z,278.8
2023-02-28T19:00:00.823Z,305.8
2023-02-28T19:05:01.443Z,313.3
2023-02-28T19:10:00.843Z,317.8
2023-02-28T19:15:00.890Z,347.1
2023-02-28T19:20:00.816Z,341.8
2023-02-28T19:25:01.062Z,325.2
2023-02-28T19:30:00.974Z,322.0
2023-02-28T19:35:00.960Z,304.2
2023-02-28T19:40:00.819Z,272.2
2023-02-28T19:45:00.882Z,247.2
2023-02-28T19:50:01.096Z,241.9
2023-02-28T19:55:01.011Z,244.8
2023-02-28T20:00:00.888Z,255.0
2023-02-28T20:05:01.963Z,270.6
2023-02-28T20:10:00.856Z,235.1
2023-02-28T20:15:00.962Z,212.0
2023-02-28T20:20:05.833Z,167.9
2023-02-28T20:25:00.892Z,150.1
2023-02-28T20:30:00.916Z,144.6
2023-02-28T20:35:01.105Z,186.4
2023-02-28T20:40:01.114Z,208.7
2023-02-28T20:45:00.976Z,237.2
2023-02-28T20:50:00.861Z,233.4
2023-02-28T20:55:00.896Z,228.4
2023-02-28T21:00:00.833Z,213.8
2023-02-28T21:05:00.962Z,195.2
2023-02-28T21:10:00.870Z,208.0
2023-02-28T21:15:00.971Z,213.2
2023-02-28T21:20:00.873Z,204.6
2023-02-28T21:25:00.944Z,172.8
2023-02-28T21:30:00.865Z,136.9
2023-02-28T21:35:00.960Z,105.4
2023-02-28T21:40:01.205Z,92.8
2023-02-28T21:45:00.966Z,86.6
2023-02-28T21:50:00.861Z,78.9
2023-02-28T22:00:00.921Z,55.8
2023-02-28T22:05:00.910Z,27.4
